createdAt,value
2022-08-30T00:00:36.544Z,6.80
2022-08-30T00:03:06.950Z,6.13
2022-08-30T00:05:34.656Z,7.93
2022-08-30T00:08:01.735Z,10.15
2022-08-30T00:10:29.745Z,8.45
2022-08-30T00:12:58.168Z,9.77
2022-08-30T00:15:25.430Z,6.95
2022-08-30T00:17:52.029Z,8.20
2022-08-30T00:20:22.546Z,9.32
2022-08-30T00:22:49.061Z,9.32
2022-08-30T00:25:16.582Z,7.85
2022-08-30T00:27:43.748Z,7.53
2022-08-30T00:30:13.284Z,5.38
2022-08-30T00:32:40.525Z,8.45
2022-08-30T00:35:09.402Z,7.30
2022-08-30T00:37:36.123Z,6.55
2022-08-30T00:40:05.610Z,6.75
2022-08-30T00:42:33.076Z,6.45
2022-08-30T00:45:31.644Z,8.40
2022-08-30T00:47:59.401Z,7.10
2022-08-30T00:50:32.970Z,7.35
2022-08-30T00:53:01.999Z,5.10
2022-08-30T00:55:30.371Z,13.65
2022-08-30T00:58:02.324Z,7.07
2022-08-30T01:00:31.205Z,8.88
2022-08-30T01:02:58.152Z,6.60
2022-08-30T01:05:30.010Z,7.90
2022-08-30T01:07:56.526Z,6.88
2022-08-30T01:10:23.213Z,6.97
2022-08-30T01:12:49.909Z,8.52
2022-08-30T01:15:19.100Z,7.03
2022-08-30T01:17:47.847Z,6.53
2022-08-30T01:20:27.097Z,5.30
2022-08-30T01:22:53.549Z,8.68
2022-08-30T01:25:24.849Z,10.23
2022-08-30T01:28:01.678Z,8.18
2022-08-30T01:30:29.842Z,10.30
2022-08-30T01:32:59.465Z,5.95
2022-08-30T01:35:28.977Z,7.40
2022-08-30T01:37:56.286Z,11.68
2022-08-30T01:40:22.873Z,7.88
2022-08-30T01:42:50.166Z,8.88
2022-08-30T01:45:21.792Z,7.97
2022-08-30T01:47:50.623Z,6.60
2022-08-30T01:50:17.240Z,7.43
2022-08-30T01:52:43.841Z,6.88
2022-08-30T01:55:10.554Z,7.72
2022-08-30T01:57:37.102Z,8.75
2022-08-30T02:00:07.828Z,6.38
2022-08-30T02:02:38.498Z,6.30
2022-08-30T02:05:06.153Z,8.98
2022-08-30T02:07:32.698Z,6.50
2022-08-30T02:09:59.380Z,7.50
2022-08-30T02:12:25.978Z,7.03
2022-08-30T02:14:57.979Z,11.63
2022-08-30T02:17:24.644Z,6.60
2022-08-30T02:19:51.276Z,7.95
2022-08-30T02:22:18.206Z,7.85
2022-08-30T02:24:46.074Z,9.05
2022-08-30T02:27:12.641Z,8.43
2022-08-30T02:29:39.134Z,7.45
2022-08-30T02:32:05.996Z,8.27
2022-08-30T02:34:35.915Z,9.82
2022-08-30T02:37:02.450Z,8.10
2022-08-30T02:39:29.007Z,7.70
2022-08-30T02:41:55.639Z,9.80
2022-08-30T02:44:22.318Z,9.07
2022-08-30T02:46:48.959Z,9.13
2022-08-30T02:52:05.184Z,9.43
2022-08-30T02:54:33.477Z,6.43
2022-08-30T02:57:04.544Z,7.15
2022-08-30T02:59:31.569Z,10.27
2022-08-30T03:01:58.246Z,8.63
2022-08-30T03:04:26.906Z,7.97
2022-08-30T03:06:54.043Z,9.75
2022-08-30T03:09:20.548Z,9.10
2022-08-30T03:11:47.320Z,8.25
2022-08-30T03:14:13.832Z,9.02
2022-08-30T03:16:40.474Z,8.93
2022-08-30T03:19:07.010Z,7.72
2022-08-30T03:21:33.643Z,7.50
2022-08-30T03:24:01.494Z,9.48
2022-08-30T03:26:27.993Z,7.43
2022-08-30T03:28:54.534Z,8.70
2022-08-30T03:31:21.171Z,9.00
2022-08-30T03:33:50.654Z,7.25
2022-08-30T03:36:17.197Z,10.32
2022-08-30T03:38:43.764Z,9.02
2022-08-30T03:41:10.320Z,8.43
2022-08-30T03:43:41.190Z,8.50
2022-08-30T03:46:11.078Z,9.43
2022-08-30T03:48:37.657Z,8.25
2022-08-30T03:51:06.057Z,11.98
2022-08-30T03:53:34.354Z,9.55
2022-08-30T03:56:00.960Z,8.88
2022-08-30T03:58:27.447Z,11.60
2022-08-30T04:00:54.042Z,9.40
2022-08-30T04:03:25.857Z,10.63
2022-08-30T04:05:56.209Z,11.07
2022-08-30T04:08:23.294Z,10.18
2022-08-30T04:10:49.931Z,11.25
2022-08-30T04:13:22.648Z,9.73
2022-08-30T04:15:49.440Z,10.25
2022-08-30T04:18:16.814Z,11.73
2022-08-30T04:20:43.625Z,10.23
2022-08-30T04:23:14.668Z,9.85
2022-08-30T04:25:42.196Z,9.68
2022-08-30T04:28:09.148Z,11.60
2022-08-30T04:30:40.270Z,11.10
2022-08-30T04:33:07.246Z,11.50
2022-08-30T04:35:33.781Z,11.90
2022-08-30T04:38:00.368Z,12.18
2022-08-30T04:40:26.938Z,10.43
2022-08-30T04:42:54.486Z,11.10
2022-08-30T04:45:22.619Z,14.60
2022-08-30T04:47:49.182Z,10.50
2022-08-30T04:50:18.874Z,10.93
2022-08-30T04:52:45.841Z,11.63
2022-08-30T04:55:20.072Z,11.75
2022-08-30T04:57:46.946Z,11.27
2022-08-30T05:00:14.628Z,10.93
2022-08-30T05:02:42.292Z,11.88
2022-08-30T05:05:31.011Z,11.30
2022-08-30T05:07:57.781Z,12.80
2022-08-30T05:10:25.230Z,12.80
2022-08-30T05:12:51.757Z,11.25
2022-08-30T05:15:19.719Z,11.40
2022-08-30T05:17:46.234Z,13.20
2022-08-30T05:20:12.958Z,13.15
2022-08-30T05:22:41.683Z,11.98
2022-08-30T05:25:14.735Z,10.43
2022-08-30T05:27:41.338Z,11.65
2022-08-30T05:30:08.742Z,12.38
2022-08-30T05:32:35.552Z,12.93
2022-08-30T05:35:06.545Z,10.85
2022-08-30T05:37:33.262Z,12.13
2022-08-30T05:39:59.993Z,12.27
2022-08-30T05:42:26.692Z,12.15
2022-08-30T05:44:57.926Z,12.32
2022-08-30T05:47:24.518Z,11.20
2022-08-30T05:49:51.189Z,12.75
2022-08-30T05:52:18.269Z,11.70
2022-08-30T05:54:45.934Z,12.30
2022-08-30T05:57:12.463Z,10.48
2022-08-30T05:59:39.023Z,10.75
2022-08-30T06:02:07.248Z,10.93
2022-08-30T06:04:36.769Z,11.18
2022-08-30T06:07:03.685Z,11.00
2022-08-30T06:09:30.741Z,10.63
2022-08-30T06:11:58.088Z,10.23
2022-08-30T06:14:28.819Z,13.02
2022-08-30T06:16:55.309Z,10.43
2022-08-30T06:19:23.142Z,11.50
2022-08-30T06:21:51.221Z,12.20
2022-08-30T06:24:20.768Z,10.02
2022-08-30T06:26:51.357Z,8.73
2022-08-30T06:29:19.866Z,11.52
2022-08-30T06:31:47.425Z,10.60
2022-08-30T06:34:17.210Z,9.88
2022-08-30T06:36:43.765Z,12.38
2022-08-30T06:39:10.874Z,10.77
2022-08-30T06:41:41.456Z,10.18
2022-08-30T06:44:45.637Z,9.10
2022-08-30T06:47:12.450Z,9.13
2022-08-30T06:49:38.996Z,9.38
2022-08-30T06:52:07.363Z,11.18
2022-08-30T06:54:34.462Z,10.48
2022-08-30T06:57:01.898Z,8.48
2022-08-30T06:59:28.489Z,9.50
2022-08-30T07:01:55.934Z,8.35
2022-08-30T07:04:25.055Z,7.28
2022-08-30T07:06:52.033Z,7.88
2022-08-30T07:09:19.447Z,7.07
2022-08-30T07:11:49.651Z,8.82
2022-08-30T07:14:19.121Z,6.60
2022-08-30T07:16:47.081Z,6.97
2022-08-30T07:19:20.294Z,8.35
2022-08-30T07:21:49.516Z,10.57
2022-08-30T07:24:41.574Z,5.32
2022-08-30T07:27:08.146Z,7.82
2022-08-30T07:29:34.642Z,6.93
2022-08-30T07:32:01.174Z,8.02
2022-08-30T07:34:27.693Z,7.53
2022-08-30T07:36:54.201Z,5.20
2022-08-30T07:39:20.932Z,3.85
2022-08-30T07:41:48.647Z,5.65
2022-08-30T07:44:16.875Z,5.18
2022-08-30T07:46:43.674Z,3.92
2022-08-30T07:49:11.843Z,6.13
2022-08-30T07:51:39.746Z,3.20
2022-08-30T07:54:10.543Z,5.22
2022-08-30T07:56:37.331Z,8.02
2022-08-30T07:59:04.546Z,4.32
2022-08-30T08:01:31.590Z,9.40
2022-08-30T08:03:59.866Z,3.10
2022-08-30T08:06:27.648Z,2.65
2022-08-30T08:09:02.289Z,3.10
2022-08-30T08:11:33.448Z,2.80
2022-08-30T08:14:03.715Z,2.95
2022-08-30T08:16:33.679Z,2.05
2022-08-30T08:19:00.561Z,2.60
2022-08-30T08:21:27.818Z,3.67
2022-08-30T08:23:55.252Z,2.78
2022-08-30T08:26:22.421Z,3.10
2022-08-30T08:28:49.454Z,6.03
2022-08-30T08:31:18.759Z,2.55
2022-08-30T08:33:47.268Z,4.18
2022-08-30T08:36:14.830Z,2.15
2022-08-30T08:38:41.487Z,3.42
2022-08-30T08:41:19.798Z,2.90
2022-08-30T08:43:47.977Z,2.22
2022-08-30T08:46:45.322Z,5.72
2022-08-30T08:49:12.473Z,7.05
2022-08-30T08:51:58.218Z,6.50
2022-08-30T08:54:48.582Z,3.40
2022-08-30T08:57:16.588Z,5.07
2022-08-30T08:59:45.007Z,2.40
2022-08-30T09:02:27.528Z,3.65
2022-08-30T09:04:59.555Z,3.28
2022-08-30T09:07:39.785Z,3.58
2022-08-30T09:10:06.800Z,11.38
2022-08-30T09:12:33.538Z,2.97
2022-08-30T09:15:25.136Z,9.98
2022-08-30T09:17:56.381Z,5.05
2022-08-30T09:20:34.886Z,4.03
2022-08-30T09:23:30.486Z,1.63
2022-08-30T09:26:01.671Z,3.75
2022-08-30T09:28:35.160Z,2.53
2022-08-30T09:31:21.282Z,7.35
2022-08-30T09:34:05.756Z,3.65
2022-08-30T09:36:43.947Z,1.70
2022-08-30T09:39:27.606Z,1.65
2022-08-30T09:41:55.639Z,4.97
2022-08-30T09:44:31.534Z,3.08
2022-08-30T09:47:01.145Z,2.67
2022-08-30T09:49:35.622Z,3.05
2022-08-30T09:52:12.044Z,1.80
2022-08-30T09:55:02.062Z,2.38
2022-08-30T09:57:47.606Z,1.63
2022-08-30T10:00:21.404Z,4.13
2022-08-30T10:03:07.505Z,1.50
2022-08-30T10:06:10.816Z,1.10
2022-08-30T10:08:56.170Z,1.20
2022-08-30T10:11:32.018Z,3.23
2022-08-30T10:14:18.720Z,2.80
2022-08-30T10:16:53.488Z,2.45
2022-08-30T10:22:24.983Z,5.25
2022-08-30T10:24:58.027Z,3.15
2022-08-30T10:27:38.625Z,4.57
2022-08-30T10:30:07.911Z,2.33
2022-08-30T10:32:43.204Z,1.75
2022-08-30T10:35:19.595Z,4.43
2022-08-30T10:37:58.265Z,3.15
2022-08-30T10:40:52.758Z,3.38
2022-08-30T10:43:52.771Z,4.70
2022-08-30T10:46:25.270Z,4.28
2022-08-30T10:48:53.905Z,3.13
2022-08-30T10:51:29.076Z,1.80
2022-08-30T10:54:13.984Z,5.50
2022-08-30T10:56:50.583Z,4.05
2022-08-30T10:59:19.266Z,5.03
2022-08-30T11:02:03.967Z,5.35
2022-08-30T11:05:00.694Z,1.83
2022-08-30T11:07:33.514Z,6.65
2022-08-30T11:10:09.076Z,4.85
2022-08-30T11:12:51.813Z,6.68
2022-08-30T11:15:22.415Z,7.32
2022-08-30T11:18:01.315Z,4.10
2022-08-30T11:20:36.752Z,3.30
2022-08-30T11:23:33.818Z,3.00
2022-08-30T11:26:05.380Z,3.35
2022-08-30T11:28:38.386Z,3.22
2022-08-30T11:31:20.466Z,2.35
2022-08-30T11:34:12.386Z,3.63
2022-08-30T11:39:52.038Z,3.63
2022-08-30T11:42:38.717Z,8.00
2022-08-30T11:45:22.006Z,4.40
2022-08-30T11:48:05.854Z,2.80
2022-08-30T11:50:53.987Z,2.25
2022-08-30T11:53:37.191Z,4.88
2022-08-30T11:56:13.081Z,3.45
2022-08-30T11:58:48.671Z,4.55
2022-08-30T12:01:50.191Z,8.60
2022-08-30T12:04:37.765Z,2.30
2022-08-30T12:07:08.185Z,3.42
2022-08-30T12:09:35.150Z,4.15
2022-08-30T12:12:12.435Z,3.08
2022-08-30T12:14:55.000Z,2.78
2022-08-30T12:18:15.352Z,5.55
2022-08-30T12:20:48.344Z,7.18
2022-08-30T12:23:44.429Z,3.28
2022-08-30T12:26:34.482Z,3.92
2022-08-30T12:29:10.129Z,5.57
2022-08-30T12:31:53.757Z,3.47
2022-08-30T12:34:26.320Z,10.63
2022-08-30T12:36:58.400Z,5.95
2022-08-30T12:39:31.853Z,3.05
2022-08-30T12:42:22.322Z,4.95
2022-08-30T12:44:52.258Z,3.38
2022-08-30T12:47:25.639Z,1.98
2022-08-30T12:49:53.928Z,4.78
2022-08-30T12:52:26.329Z,4.18
2022-08-30T12:54:55.133Z,5.97
2022-08-30T12:57:39.203Z,2.85
2022-08-30T13:00:08.547Z,3.28
2022-08-30T13:02:52.601Z,4.32
2022-08-30T13:05:45.575Z,6.75
2022-08-30T13:08:37.451Z,2.30
2022-08-30T13:11:24.808Z,2.95
2022-08-30T13:14:30.569Z,6.07
2022-08-30T13:17:20.433Z,2.25
2022-08-30T13:20:05.841Z,3.60
2022-08-30T13:22:59.516Z,2.22
2022-08-30T13:25:28.861Z,3.78
2022-08-30T13:27:55.430Z,2.65
2022-08-30T13:30:22.289Z,1.40
2022-08-30T13:32:50.084Z,2.05
2022-08-30T13:35:16.871Z,2.55
2022-08-30T13:37:50.526Z,4.13
2022-08-30T13:40:20.998Z,4.63
2022-08-30T13:42:48.569Z,2.45
2022-08-30T13:48:03.926Z,2.60
2022-08-30T13:50:30.849Z,2.50
2022-08-30T13:52:57.674Z,4.70
2022-08-30T13:55:24.658Z,3.65
2022-08-30T13:57:55.296Z,2.30
2022-08-30T14:00:24.937Z,7.28
2022-08-30T14:02:57.764Z,2.58
2022-08-30T14:06:09.917Z,5.47
2022-08-30T14:11:18.575Z,4.35
2022-08-30T14:16:39.455Z,8.88
2022-08-30T14:19:06.579Z,3.95
2022-08-30T14:21:35.494Z,3.80
2022-08-30T14:24:06.777Z,2.70
2022-08-30T14:26:40.716Z,4.55
2022-08-30T14:29:10.496Z,3.70
2022-08-30T14:31:39.033Z,8.02
2022-08-30T14:34:08.574Z,4.10
2022-08-30T14:36:36.861Z,4.07
2022-08-30T14:39:09.573Z,5.25
2022-08-30T14:41:43.709Z,4.90
2022-08-30T14:44:16.973Z,3.90
2022-08-30T14:46:44.098Z,5.72
2022-08-30T14:49:12.476Z,5.18
2022-08-30T14:51:39.888Z,3.72
2022-08-30T14:54:08.997Z,8.07
2022-08-30T14:56:37.733Z,2.25
2022-08-30T14:59:04.453Z,4.25
2022-08-30T15:01:31.736Z,5.78
2022-08-30T15:04:07.410Z,3.03
2022-08-30T15:06:35.885Z,3.13
2022-08-30T15:09:03.595Z,4.07
2022-08-30T15:11:30.537Z,4.10
2022-08-30T15:14:05.876Z,6.07
2022-08-30T15:16:35.768Z,3.25
2022-08-30T15:19:04.212Z,4.15
2022-08-30T15:21:34.561Z,2.75
2022-08-30T15:24:09.118Z,2.55
2022-08-30T15:26:36.675Z,4.47
2022-08-30T15:29:03.864Z,3.17
2022-08-30T15:31:31.830Z,3.67
2022-08-30T15:34:01.721Z,3.95
2022-08-30T15:36:29.239Z,3.75
2022-08-30T15:38:57.189Z,4.32
2022-08-30T15:41:24.466Z,5.38
2022-08-30T15:43:57.241Z,2.65
2022-08-30T15:46:29.944Z,3.30
2022-08-30T15:49:00.971Z,2.22
2022-08-30T15:51:28.653Z,2.33
2022-08-30T15:53:59.136Z,4.97
2022-08-30T15:56:26.055Z,1.95
2022-08-30T15:58:53.167Z,4.45
2022-08-30T16:01:30.087Z,3.15
2022-08-30T16:04:00.804Z,2.10
2022-08-30T16:06:34.741Z,2.95
2022-08-30T16:09:01.615Z,2.97
2022-08-30T16:11:28.322Z,2.33
2022-08-30T16:13:56.965Z,5.13
2022-08-30T16:16:24.678Z,2.95
2022-08-30T16:18:53.710Z,3.40
2022-08-30T16:21:29.572Z,3.47
2022-08-30T16:24:01.590Z,4.05
2022-08-30T16:26:29.712Z,4.35
2022-08-30T16:28:56.939Z,3.38
2022-08-30T16:31:26.096Z,4.30
2022-08-30T16:34:02.795Z,4.93
2022-08-30T16:36:32.271Z,4.63
2022-08-30T16:38:59.269Z,3.42
2022-08-30T16:41:26.182Z,3.85
2022-08-30T16:43:53.868Z,4.22
2022-08-30T16:46:26.915Z,4.63
2022-08-30T16:48:57.021Z,4.57
2022-08-30T16:51:26.249Z,2.72
2022-08-30T16:53:58.635Z,3.70
2022-08-30T16:56:27.175Z,3.42
2022-08-30T16:59:01.376Z,4.60
2022-08-30T17:01:30.721Z,3.03
2022-08-30T17:03:58.630Z,1.73
2022-08-30T17:06:25.152Z,2.65
2022-08-30T17:08:52.565Z,4.63
2022-08-30T17:11:23.770Z,3.13
2022-08-30T17:13:54.998Z,3.22
2022-08-30T17:16:27.896Z,3.33
2022-08-30T17:18:59.595Z,4.68
2022-08-30T17:21:28.760Z,3.83
2022-08-30T17:23:58.458Z,2.92
2022-08-30T17:26:32.869Z,2.97
2022-08-30T17:29:00.107Z,4.78
2022-08-30T17:31:29.087Z,2.47
2022-08-30T17:34:02.815Z,2.53
2022-08-30T17:36:31.791Z,2.33
2022-08-30T17:38:58.350Z,4.32
2022-08-30T17:41:25.248Z,2.83
2022-08-30T17:43:55.741Z,2.47
2022-08-30T17:46:22.601Z,2.53
2022-08-30T17:48:57.977Z,2.80
2022-08-30T17:51:29.426Z,4.00
2022-08-30T17:54:00.955Z,1.92
2022-08-30T17:56:34.362Z,2.22
2022-08-30T17:59:04.781Z,2.17
2022-08-30T18:01:31.738Z,4.47
2022-08-30T18:04:05.929Z,1.45
2022-08-30T18:06:33.570Z,2.88
2022-08-30T18:09:01.410Z,2.78
2022-08-30T18:11:28.134Z,2.75
2022-08-30T18:13:54.633Z,3.30
2022-08-30T18:16:26.406Z,2.38
2022-08-30T18:18:57.265Z,3.72
2022-08-30T18:21:25.298Z,1.88
2022-08-30T18:23:53.431Z,2.47
2022-08-30T18:26:24.138Z,5.05
2022-08-30T18:28:51.411Z,4.05
2022-08-30T18:31:18.198Z,2.88
2022-08-30T18:33:49.225Z,3.22
2022-08-30T18:36:17.010Z,4.93
2022-08-30T18:38:44.394Z,2.22
2022-08-30T18:41:15.916Z,3.70
2022-08-30T18:43:46.857Z,9.23
2022-08-30T18:46:16.139Z,8.05
2022-08-30T18:48:46.107Z,3.85
2022-08-30T18:51:19.089Z,2.80
2022-08-30T18:53:49.879Z,3.97
2022-08-30T18:56:17.036Z,3.35
2022-08-30T18:58:44.837Z,3.58
2022-08-30T19:01:12.830Z,3.10
2022-08-30T19:03:43.746Z,3.40
2022-08-30T19:06:11.911Z,2.25
2022-08-30T19:08:40.227Z,3.05
2022-08-30T19:11:07.759Z,6.25
2022-08-30T19:13:46.712Z,1.83
2022-08-30T19:16:13.358Z,3.03
2022-08-30T19:18:40.356Z,1.90
2022-08-30T19:21:07.224Z,3.08
2022-08-30T19:23:43.393Z,2.63
2022-08-30T19:26:10.938Z,3.30
2022-08-30T19:28:37.888Z,10.57
2022-08-30T19:31:04.694Z,4.68
2022-08-30T19:33:33.873Z,5.40
2022-08-30T19:36:00.609Z,2.08
2022-08-30T19:38:27.246Z,2.63
2022-08-30T19:41:00.014Z,5.43
2022-08-30T19:43:28.217Z,3.28
2022-08-30T19:45:59.835Z,4.20
2022-08-30T19:48:32.280Z,4.93
2022-08-30T19:50:59.857Z,4.10
2022-08-30T19:53:28.429Z,2.15
2022-08-30T19:55:54.937Z,1.55
2022-08-30T19:58:21.426Z,4.15
2022-08-30T20:01:00.888Z,2.28
2022-08-30T20:03:38.081Z,2.70
2022-08-30T20:06:07.786Z,1.92
2022-08-30T20:08:35.634Z,3.00
2022-08-30T20:11:02.344Z,2.78
2022-08-30T20:13:34.170Z,3.25
2022-08-30T20:16:01.261Z,5.35
2022-08-30T20:18:28.860Z,4.97
2022-08-30T20:20:55.441Z,3.55
2022-08-30T20:23:25.608Z,2.17
2022-08-30T20:25:54.371Z,3.83
2022-08-30T20:28:21.710Z,2.28
2022-08-30T20:30:49.109Z,3.45
2022-08-30T20:33:18.574Z,2.45
2022-08-30T20:35:48.973Z,3.50
2022-08-30T20:38:25.401Z,3.67
2022-08-30T20:40:59.306Z,4.13
2022-08-30T20:43:30.539Z,1.75
2022-08-30T20:45:57.318Z,3.10
2022-08-30T20:48:27.004Z,3.10
2022-08-30T20:50:53.582Z,4.15
2022-08-30T20:53:24.414Z,1.73
2022-08-30T20:55:50.906Z,2.17
2022-08-30T20:58:17.707Z,5.05
2022-08-30T21:00:50.078Z,2.28
2022-08-30T21:03:27.412Z,2.13
2022-08-30T21:05:55.122Z,2.28
2022-08-30T21:08:21.737Z,8.35
2022-08-30T21:10:48.266Z,2.47
2022-08-30T21:13:16.465Z,5.05
2022-08-30T21:15:46.296Z,3.17
2022-08-30T21:18:16.060Z,2.25
2022-08-30T21:20:42.681Z,4.68
2022-08-30T21:23:12.502Z,1.75
2022-08-30T21:25:40.767Z,1.48
2022-08-30T21:28:07.599Z,1.42
2022-08-30T21:30:35.613Z,3.33
2022-08-30T21:33:04.354Z,2.72
2022-08-30T21:35:50.017Z,2.85
2022-08-30T21:38:17.389Z,3.85
2022-08-30T21:40:44.374Z,2.50
2022-08-30T21:43:22.773Z,2.15
2022-08-30T21:45:51.233Z,5.28
2022-08-30T21:48:18.054Z,3.60
2022-08-30T21:50:46.418Z,3.63
2022-08-30T21:53:17.106Z,5.05
2022-08-30T21:55:43.945Z,2.85
2022-08-30T21:58:11.058Z,2.33
2022-08-30T22:00:37.615Z,5.90
2022-08-30T22:03:04.339Z,2.88
2022-08-30T22:05:31.249Z,3.40
2022-08-30T22:08:01.037Z,4.13
2022-08-30T22:10:32.409Z,1.75
2022-08-30T22:13:00.372Z,2.78
2022-08-30T22:15:28.175Z,3.58
2022-08-30T22:17:58.432Z,5.75
2022-08-30T22:20:31.335Z,3.30
2022-08-30T22:22:58.687Z,3.47
2022-08-30T22:25:26.621Z,3.47
2022-08-30T22:27:53.145Z,3.63
2022-08-30T22:30:19.659Z,4.68
2022-08-30T22:32:46.319Z,2.60
2022-08-30T22:35:13.081Z,2.33
2022-08-30T22:37:41.665Z,5.43
2022-08-30T22:40:14.180Z,3.95
2022-08-30T22:42:40.763Z,4.25
2022-08-30T22:45:15.062Z,3.80
2022-08-30T22:47:41.648Z,4.03
2022-08-30T22:50:10.346Z,3.22
2022-08-30T22:52:36.889Z,2.28
2022-08-30T22:55:04.249Z,4.35
2022-08-30T22:57:31.188Z,3.88
2022-08-30T22:59:57.665Z,1.98
2022-08-30T23:02:24.843Z,5.50
2022-08-30T23:04:55.870Z,2.47
2022-08-30T23:07:22.434Z,3.30
2022-08-30T23:09:48.910Z,3.25
2022-08-30T23:12:15.394Z,3.40
2022-08-30T23:14:42.269Z,3.55
2022-08-30T23:17:09.509Z,3.97
2022-08-30T23:19:35.984Z,4.55
2022-08-30T23:22:02.483Z,3.00
2022-08-30T23:24:56.621Z,3.90
2022-08-30T23:27:43.325Z,3.92
2022-08-30T23:30:29.296Z,4.85
2022-08-30T23:33:14.966Z,4.75
2022-08-30T23:38:45.228Z,3.45
2022-08-30T23:41:34.129Z,4.15
2022-08-30T23:44:20.878Z,3.58
2022-08-30T23:47:06.223Z,3.67
2022-08-30T23:49:51.273Z,4.18
2022-08-30T23:52:36.377Z,3.05
2022-08-30T23:55:24.099Z,2.33
2022-08-30T23:58:08.851Z,7.03
